createdAt,value
2023-04-10T00:00:49.929Z,17.70
2023-04-10T00:01:50.161Z,15.20
2023-04-10T00:02:50.145Z,14.60
2023-04-10T00:03:50.058Z,16.10
2023-04-10T00:04:50.130Z,14.40
2023-04-10T00:05:49.898Z,15.20
2023-04-10T00:06:49.918Z,15.50
2023-04-10T00:07:49.868Z,14.20
2023-04-10T00:08:50.899Z,13.80
2023-04-10T00:09:49.883Z,16.20
2023-04-10T00:10:49.932Z,15.70
2023-04-10T00:11:49.852Z,15.90
2023-04-10T00:12:49.850Z,15.10
2023-04-10T00:13:49.871Z,16.40
2023-04-10T00:14:49.843Z,14.80
2023-04-10T00:15:49.818Z,17.60
2023-04-10T00:16:49.908Z,15.10
2023-04-10T00:17:49.865Z,15.60
2023-04-10T00:18:49.871Z,14.90
2023-04-10T00:19:49.902Z,14.60
2023-04-10T00:20:49.795Z,15.70
2023-04-10T00:21:49.841Z,15.70
2023-04-10T00:22:49.785Z,16.10
2023-04-10T00:23:49.803Z,16.10
2023-04-10T00:24:49.777Z,15.30
2023-04-10T00:25:49.758Z,15.80
2023-04-10T00:26:49.769Z,15.60
2023-04-10T00:27:49.755Z,16.70
2023-04-10T00:28:49.744Z,15.50
2023-04-10T00:29:49.749Z,14.70
2023-04-10T00:30:49.708Z,18.00
2023-04-10T00:31:49.748Z,17.00
2023-04-10T00:32:49.791Z,17.50
2023-04-10T00:33:49.702Z,16.60
2023-04-10T00:34:49.717Z,16.10
2023-04-10T00:35:49.716Z,14.90
2023-04-10T00:36:49.683Z,15.50
2023-04-10T00:37:49.687Z,19.10
2023-04-10T00:38:49.669Z,17.60
2023-04-10T00:39:49.649Z,16.40
2023-04-10T00:40:49.670Z,18.00
2023-04-10T00:41:49.606Z,18.40
2023-04-10T00:42:49.647Z,15.90
2023-04-10T00:43:49.628Z,16.80
2023-04-10T00:44:49.905Z,16.00
2023-04-10T00:45:50.853Z,21.00
2023-04-10T00:46:50.644Z,17.30
2023-04-10T00:47:49.676Z,19.10
2023-04-10T00:48:49.575Z,19.50
2023-04-10T00:49:49.601Z,19.50
2023-04-10T00:50:49.547Z,19.10
2023-04-10T00:51:49.572Z,18.20
2023-04-10T00:52:49.559Z,20.80
2023-04-10T00:53:49.548Z,19.40
2023-04-10T00:54:49.548Z,19.30
2023-04-10T00:55:50.336Z,22.90
2023-04-10T00:56:49.574Z,17.90
2023-04-10T00:57:49.541Z,18.70
2023-04-10T00:58:50.279Z,17.60
2023-04-10T00:59:49.472Z,19.30
2023-04-10T01:00:49.487Z,17.10
2023-04-10T01:01:49.583Z,16.90
2023-04-10T01:02:49.580Z,20.10
2023-04-10T01:03:49.617Z,18.40
2023-04-10T01:04:49.507Z,18.60
2023-04-10T01:05:49.480Z,19.60
2023-04-10T01:06:50.464Z,25.00
2023-04-10T01:07:49.453Z,18.80
2023-04-10T01:08:49.437Z,22.80
2023-04-10T01:09:49.418Z,18.90
2023-04-10T01:10:49.416Z,21.80
2023-04-10T01:11:49.450Z,18.30
2023-04-10T01:12:49.477Z,21.00
2023-04-10T01:13:49.425Z,22.40
2023-04-10T01:14:49.473Z,18.80
2023-04-10T01:15:50.232Z,18.40
2023-04-10T01:16:50.369Z,19.90
2023-04-10T01:17:50.368Z,19.30
2023-04-10T01:18:49.409Z,23.20
2023-04-10T01:19:49.374Z,22.20
2023-04-10T01:20:49.328Z,21.30
2023-04-10T01:21:49.319Z,20.80
2023-04-10T01:22:49.356Z,21.40
2023-04-10T01:24:23.428Z,20.20
2023-04-10T01:24:49.284Z,19.40
2023-04-10T01:26:21.268Z,19.60
2023-04-10T01:26:49.283Z,19.60
2023-04-10T01:28:21.778Z,19.50
2023-04-10T01:28:49.246Z,21.30
2023-04-10T01:29:49.344Z,23.60
2023-04-10T01:30:50.225Z,21.40
2023-04-10T01:31:49.212Z,24.20
2023-04-10T01:32:49.275Z,24.30
2023-04-10T01:33:49.197Z,25.60
2023-04-10T01:34:49.203Z,24.80
2023-04-10T01:35:49.258Z,26.40
2023-04-10T01:36:49.211Z,27.00
2023-04-10T01:37:49.168Z,23.20
2023-04-10T01:38:49.214Z,23.90
2023-04-10T01:39:49.165Z,22.70
2023-04-10T01:40:49.164Z,23.00
2023-04-10T01:41:49.195Z,21.50
2023-04-10T01:42:49.159Z,19.80
2023-04-10T01:43:49.197Z,21.60
2023-04-10T01:44:49.117Z,22.50
2023-04-10T01:45:49.136Z,20.60
2023-04-10T01:46:49.201Z,21.00
2023-04-10T01:47:49.151Z,18.70
2023-04-10T01:48:49.087Z,21.40
2023-04-10T01:49:49.161Z,21.10
2023-04-10T01:50:49.084Z,18.60
2023-04-10T01:51:49.157Z,20.10
2023-04-10T01:52:49.053Z,20.30
2023-04-10T01:53:52.031Z,20.00
2023-04-10T01:54:49.159Z,19.60
2023-04-10T01:55:49.967Z,19.10
2023-04-10T01:56:49.108Z,18.90
2023-04-10T01:57:49.073Z,19.30
2023-04-10T01:58:49.098Z,22.00
2023-04-10T01:59:49.064Z,20.40
2023-04-10T02:00:49.021Z,18.70
2023-04-10T02:01:49.196Z,20.50
2023-04-10T02:02:50.799Z,20.90
2023-04-10T02:03:49.202Z,20.10
2023-04-10T02:04:49.055Z,20.60
2023-04-10T02:05:48.993Z,19.20
2023-04-10T02:06:50.242Z,18.50
2023-04-10T02:07:50.334Z,21.40
2023-04-10T02:08:49.015Z,18.90
2023-04-10T02:09:50.881Z,19.20
2023-04-10T02:10:48.940Z,18.80
2023-04-10T02:11:49.182Z,19.30
2023-04-10T02:12:48.976Z,21.10
2023-04-10T02:13:48.948Z,21.30
2023-04-10T02:14:48.911Z,21.60
2023-04-10T02:15:48.948Z,20.70
2023-04-10T02:16:49.876Z,20.80
2023-04-10T02:17:49.088Z,21.30
2023-04-10T02:18:48.941Z,22.60
2023-04-10T02:19:48.978Z,19.70
2023-04-10T02:20:48.885Z,20.60
2023-04-10T02:21:48.872Z,20.70
2023-04-10T02:22:48.848Z,21.40
2023-04-10T02:23:48.885Z,22.10
2023-04-10T02:24:48.835Z,21.80
2023-04-10T02:25:49.759Z,19.70
2023-04-10T02:26:48.841Z,21.50
2023-04-10T02:27:48.848Z,21.20
2023-04-10T02:28:48.826Z,22.50
2023-04-10T02:29:48.857Z,22.10
2023-04-10T02:30:48.862Z,22.10
2023-04-10T02:31:48.777Z,21.40
2023-04-10T02:32:48.866Z,19.70
2023-04-10T02:33:48.789Z,19.60
2023-04-10T02:34:48.808Z,19.50
2023-04-10T02:35:48.769Z,20.10
2023-04-10T02:36:48.736Z,18.70
2023-04-10T02:37:48.788Z,20.10
2023-04-10T02:38:48.836Z,20.90
2023-04-10T02:39:48.765Z,18.90
2023-04-10T02:40:48.730Z,20.40
2023-04-10T02:41:48.763Z,21.30
2023-04-10T02:42:48.700Z,21.80
2023-04-10T02:43:48.729Z,20.80
2023-04-10T02:44:49.692Z,21.60
2023-04-10T02:45:48.702Z,23.90
2023-04-10T02:46:48.715Z,25.30
2023-04-10T02:47:48.745Z,21.90
2023-04-10T02:48:48.704Z,24.00
2023-04-10T02:49:48.663Z,20.80
2023-04-10T02:50:48.665Z,18.80
2023-04-10T02:51:48.639Z,22.00
2023-04-10T02:52:48.630Z,20.70
2023-04-10T02:53:48.624Z,20.50
2023-04-10T02:54:48.764Z,22.50
2023-04-10T02:55:48.592Z,21.40
2023-04-10T02:56:48.666Z,21.60
2023-04-10T02:57:48.620Z,25.30
2023-04-10T02:58:48.569Z,21.10
2023-04-10T02:59:48.564Z,21.90
2023-04-10T03:00:48.572Z,21.70
2023-04-10T03:01:48.644Z,22.60
2023-04-10T03:02:48.759Z,23.20
2023-04-10T03:03:48.601Z,20.90
2023-04-10T03:04:48.630Z,23.00
2023-04-10T03:05:48.517Z,24.90
2023-04-10T03:06:48.547Z,25.60
2023-04-10T03:07:48.550Z,23.10
2023-04-10T03:08:48.664Z,22.10
2023-04-10T03:09:48.532Z,26.30
2023-04-10T03:10:48.543Z,25.50
2023-04-10T03:11:48.504Z,24.20
2023-04-10T03:12:48.537Z,23.90
2023-04-10T03:13:48.456Z,24.30
2023-04-10T03:14:48.481Z,28.90
2023-04-10T03:15:48.455Z,23.50
2023-04-10T03:16:49.368Z,23.70
2023-04-10T03:17:48.573Z,25.40
2023-04-10T03:18:48.474Z,26.50
2023-04-10T03:19:48.411Z,24.50
2023-04-10T03:20:48.415Z,24.70
2023-04-10T03:21:48.468Z,21.00
2023-04-10T03:22:48.389Z,23.20
2023-04-10T03:23:48.410Z,24.00
2023-04-10T03:24:48.414Z,22.40
2023-04-10T03:25:48.421Z,21.50
2023-04-10T03:26:48.357Z,22.40
2023-04-10T03:27:48.444Z,23.30
2023-04-10T03:28:49.202Z,22.90
2023-04-10T03:29:48.367Z,24.60
2023-04-10T03:30:48.349Z,23.70
2023-04-10T03:31:48.387Z,23.50
2023-04-10T03:32:48.359Z,24.00
2023-04-10T03:33:48.450Z,24.40
2023-04-10T03:34:48.311Z,24.70
2023-04-10T03:35:49.138Z,23.20
2023-04-10T03:36:48.276Z,23.00
2023-04-10T03:37:48.387Z,23.00
2023-04-10T03:38:48.366Z,25.00
2023-04-10T03:39:48.293Z,25.20
2023-04-10T03:40:48.241Z,23.70
2023-04-10T03:41:48.250Z,23.70
2023-04-10T03:42:48.325Z,22.10
2023-04-10T03:43:48.241Z,22.00
2023-04-10T03:44:49.853Z,19.80
2023-04-10T03:45:48.198Z,23.00
2023-04-10T03:46:48.301Z,22.10
2023-04-10T04:02:30.068Z,24.40
2023-04-10T04:03:30.120Z,25.70
2023-04-10T04:04:30.058Z,27.90
2023-04-10T04:05:31.061Z,31.80
2023-04-10T04:06:31.054Z,28.90
2023-04-10T04:07:31.079Z,30.10
2023-04-10T04:08:32.029Z,28.50
2023-04-10T04:09:31.568Z,30.70
2023-04-10T04:10:31.043Z,30.50
2023-04-10T04:11:31.004Z,32.50
2023-04-10T04:12:31.675Z,30.00
2023-04-10T04:13:30.991Z,30.40
2023-04-10T04:14:31.992Z,30.60
2023-04-10T04:15:30.985Z,30.30
2023-04-10T04:16:31.018Z,30.40
2023-04-10T04:17:31.004Z,27.60
2023-04-10T04:18:30.980Z,28.60
2023-04-10T04:19:30.969Z,28.60
2023-04-10T04:20:31.649Z,31.20
2023-04-10T04:21:30.930Z,27.70
2023-04-10T04:22:30.925Z,27.60
2023-04-10T04:23:30.982Z,26.70
2023-04-10T04:24:30.918Z,29.40
2023-04-10T04:25:30.988Z,27.00
2023-04-10T04:26:30.898Z,26.30
2023-04-10T04:27:30.882Z,29.80
2023-04-10T04:28:30.893Z,27.10
2023-04-10T04:29:30.884Z,28.20
2023-04-10T04:30:30.883Z,26.10
2023-04-10T04:31:31.606Z,27.10
2023-04-10T04:32:30.897Z,29.50
2023-04-10T04:33:30.900Z,27.40
2023-04-10T04:34:30.853Z,27.30
2023-04-10T04:35:31.559Z,26.20
2023-04-10T04:36:30.865Z,25.90
2023-04-10T04:37:30.821Z,26.50
2023-04-10T04:38:30.828Z,26.40
2023-04-10T04:39:30.838Z,24.60
2023-04-10T04:40:30.831Z,25.30
2023-04-10T04:41:30.833Z,25.40
2023-04-10T04:42:30.802Z,25.40
2023-04-10T04:43:30.793Z,26.20
2023-04-10T04:44:30.819Z,23.60
2023-04-10T04:45:30.776Z,26.00
2023-04-10T04:46:30.783Z,25.70
2023-04-10T04:47:30.791Z,22.60
2023-04-10T04:48:30.740Z,22.30
2023-04-10T04:49:30.761Z,24.80
2023-04-10T04:50:30.756Z,26.30
2023-04-10T04:51:30.713Z,24.10
2023-04-10T04:52:30.753Z,22.00
2023-04-10T04:53:30.757Z,23.90
2023-04-10T04:54:30.710Z,27.40
2023-04-10T04:55:30.717Z,24.20
2023-04-10T04:56:30.708Z,23.20
2023-04-10T04:57:30.677Z,25.50
2023-04-10T04:58:30.681Z,24.50
2023-04-10T04:59:30.668Z,25.50
2023-04-10T05:00:30.709Z,23.40
2023-04-10T05:01:30.697Z,23.10
2023-04-10T05:02:30.804Z,25.70
2023-04-10T05:03:30.829Z,22.20
2023-04-10T05:04:30.768Z,23.70
2023-04-10T05:05:30.729Z,25.20
2023-04-10T05:06:30.601Z,26.80
2023-04-10T05:07:30.600Z,25.80
2023-04-10T05:08:30.609Z,23.60
2023-04-10T05:09:30.573Z,24.30
2023-04-10T05:10:30.586Z,27.60
2023-04-10T05:11:30.610Z,29.20
2023-04-10T05:12:30.598Z,26.70
2023-04-10T05:13:30.553Z,28.10
2023-04-10T05:14:30.559Z,28.10
2023-04-10T05:15:30.589Z,27.00
2023-04-10T05:16:31.183Z,27.00
2023-04-10T05:17:30.570Z,27.90
2023-04-10T05:18:30.641Z,24.60
2023-04-10T05:19:30.545Z,26.00
2023-04-10T05:20:30.516Z,24.90
2023-04-10T05:21:30.483Z,24.30
2023-04-10T05:22:30.507Z,129.90
2023-04-10T05:23:30.484Z,388.80
2023-04-10T05:24:30.479Z,684.20
2023-04-10T05:25:30.455Z,542.60
2023-04-10T05:26:30.493Z,90.40
2023-04-10T05:27:30.435Z,33.80
2023-04-10T05:28:30.446Z,104.30
2023-04-10T05:29:30.445Z,26.80
2023-04-10T05:30:30.454Z,20.20
2023-04-10T05:31:30.562Z,18.80
2023-04-10T05:32:30.505Z,17.50
2023-04-10T05:33:30.408Z,16.80
2023-04-10T05:34:30.460Z,14.80
2023-04-10T05:35:30.471Z,15.80
2023-04-10T05:36:30.388Z,13.20
2023-04-10T05:37:30.459Z,12.80
2023-04-10T05:38:30.387Z,13.40
2023-04-10T05:39:30.383Z,14.10
2023-04-10T05:40:30.387Z,13.50
2023-04-10T05:41:30.369Z,12.40
2023-04-10T05:42:31.027Z,14.30
2023-04-10T05:43:30.343Z,13.00
2023-04-10T05:44:31.075Z,11.30
2023-04-10T05:45:30.383Z,12.80
2023-04-10T05:46:30.434Z,11.80
2023-04-10T05:47:30.313Z,12.10
2023-04-10T05:48:30.345Z,13.60
2023-04-10T05:49:30.306Z,11.60
2023-04-10T05:50:30.674Z,11.70
2023-04-10T05:51:31.290Z,11.00
2023-04-10T05:52:31.765Z,11.10
2023-04-10T05:53:30.266Z,12.30
2023-04-10T05:54:30.281Z,9.30
2023-04-10T05:55:30.286Z,9.80
2023-04-10T05:56:30.296Z,9.80
2023-04-10T05:57:30.257Z,8.80
2023-04-10T05:58:30.324Z,10.60
2023-04-10T05:59:30.221Z,9.90
2023-04-10T06:00:30.423Z,10.20
2023-04-10T06:01:31.238Z,8.70
2023-04-10T06:02:30.330Z,11.40
2023-04-10T06:03:30.443Z,8.30
2023-04-10T06:04:31.903Z,10.10
2023-04-10T06:05:30.226Z,8.50
2023-04-10T06:06:30.167Z,8.60
2023-04-10T06:07:31.156Z,7.90
2023-04-10T06:08:30.178Z,10.10
2023-04-10T06:09:30.742Z,8.50
2023-04-10T06:10:30.198Z,8.00
2023-04-10T06:11:30.136Z,9.40
2023-04-10T06:12:31.145Z,7.90
2023-04-10T06:13:30.119Z,12.30
2023-04-10T06:14:31.323Z,9.60
2023-04-10T06:15:30.355Z,11.00
2023-04-10T06:16:30.316Z,10.10
2023-04-10T06:17:30.760Z,9.20
2023-04-10T06:18:30.119Z,9.70
2023-04-10T06:19:30.121Z,11.00
2023-04-10T06:20:30.576Z,9.40
2023-04-10T06:21:30.078Z,8.80
2023-04-10T06:22:30.041Z,8.80
2023-04-10T06:23:30.088Z,9.60
2023-04-10T06:24:30.088Z,8.70
2023-04-10T06:25:30.270Z,8.30
2023-04-10T06:26:30.583Z,8.90
2023-04-10T06:27:30.033Z,7.80
2023-04-10T06:28:30.142Z,7.90
2023-04-10T06:29:30.432Z,8.90
2023-04-10T06:30:30.077Z,8.90
2023-04-10T06:31:29.999Z,15.10
2023-04-10T06:32:30.042Z,9.10
2023-04-10T06:33:29.978Z,10.70
2023-04-10T06:34:30.000Z,8.80
2023-04-10T06:35:29.968Z,7.90
2023-04-10T06:36:29.932Z,8.00
2023-04-10T06:37:30.021Z,7.30
2023-04-10T06:38:29.934Z,8.50
2023-04-10T06:39:29.938Z,7.60
2023-04-10T06:40:29.930Z,7.30
2023-04-10T06:41:29.890Z,7.40
2023-04-10T06:42:30.176Z,9.20
2023-04-10T06:43:29.871Z,8.70
2023-04-10T06:44:30.071Z,9.30
2023-04-10T06:45:29.877Z,9.30
2023-04-10T06:46:29.980Z,8.50
2023-04-10T06:47:30.520Z,10.30
2023-04-10T06:48:29.847Z,7.90
2023-04-10T06:49:29.895Z,9.60
2023-04-10T06:50:31.595Z,9.20
2023-04-10T06:51:29.830Z,8.30
2023-04-10T06:52:30.598Z,9.10
2023-04-10T06:53:29.837Z,8.30
2023-04-10T06:54:29.792Z,9.40
2023-04-10T06:55:30.084Z,11.80
2023-04-10T06:56:30.683Z,9.90
2023-04-10T06:57:29.913Z,9.00
2023-04-10T06:58:29.773Z,8.90
2023-04-10T06:59:29.770Z,9.20
2023-04-10T07:00:29.798Z,8.90
2023-04-10T07:01:29.760Z,8.60
2023-04-10T07:02:29.896Z,9.10
2023-04-10T07:03:29.755Z,11.10
2023-04-10T07:04:29.715Z,8.10
2023-04-10T07:05:30.002Z,8.60
2023-04-10T07:06:29.747Z,8.50
2023-04-10T07:07:29.712Z,8.70
2023-04-10T07:08:29.714Z,9.50
2023-04-10T07:09:29.710Z,10.60
2023-04-10T07:10:29.684Z,9.90
2023-04-10T07:11:29.696Z,9.90
2023-04-10T07:12:29.702Z,10.60
2023-04-10T07:13:30.166Z,9.00
2023-04-10T07:14:29.665Z,10.30
2023-04-10T07:15:29.644Z,8.90
2023-04-10T07:16:29.717Z,10.90
2023-04-10T07:17:29.848Z,9.10
2023-04-10T07:18:29.666Z,8.40
2023-04-10T07:19:29.626Z,9.50
2023-04-10T07:20:29.616Z,8.50
2023-04-10T07:21:29.624Z,10.10
2023-04-10T07:22:29.613Z,10.50
2023-04-10T07:23:29.634Z,9.80
2023-04-10T07:24:29.586Z,8.80
2023-04-10T07:25:29.606Z,8.30
2023-04-10T07:26:29.553Z,9.50
2023-04-10T07:27:29.556Z,8.70
2023-04-10T07:28:29.651Z,10.10
2023-04-10T07:29:29.557Z,8.90
2023-04-10T07:30:29.534Z,8.80
2023-04-10T07:31:29.560Z,8.80
2023-04-10T07:32:30.623Z,10.30
2023-04-10T07:33:29.546Z,9.30
2023-04-10T07:34:29.530Z,9.30
2023-04-10T07:35:29.522Z,9.40
2023-04-10T07:36:29.515Z,11.00
2023-04-10T07:37:29.480Z,9.80
2023-04-10T07:38:29.490Z,10.20
2023-04-10T07:39:29.467Z,10.90
2023-04-10T07:40:29.526Z,9.00
2023-04-10T07:41:29.469Z,9.20
2023-04-10T07:42:29.445Z,9.40
2023-04-10T07:43:29.517Z,9.70
2023-04-10T07:44:29.546Z,11.00
2023-04-10T07:45:29.533Z,11.10
2023-04-10T07:46:29.455Z,9.70
2023-04-10T07:47:30.423Z,9.30
2023-04-10T07:48:29.402Z,9.70
2023-04-10T07:49:29.388Z,9.30
2023-04-10T07:50:29.427Z,10.20
2023-04-10T07:51:29.394Z,10.90
2023-04-10T07:52:29.544Z,10.20
2023-04-10T07:53:29.557Z,10.80
2023-04-10T07:54:29.545Z,10.20
2023-04-10T07:55:29.523Z,10.10
2023-04-10T07:56:29.475Z,10.00
2023-04-10T07:57:29.356Z,10.00
2023-04-10T07:58:29.380Z,13.70
2023-04-10T07:59:29.355Z,10.50
2023-04-10T08:00:29.466Z,9.90
2023-04-10T08:01:29.434Z,11.00
2023-04-10T08:02:29.473Z,10.30
2023-04-10T08:03:29.463Z,11.70
2023-04-10T08:04:29.456Z,10.00
2023-04-10T08:05:29.454Z,13.60
2023-04-10T08:06:29.315Z,11.60
2023-04-10T08:07:29.268Z,10.60
2023-04-10T08:08:29.366Z,10.80
2023-04-10T08:09:29.277Z,10.50
2023-04-10T08:10:30.254Z,9.90
2023-04-10T08:11:29.231Z,10.70
2023-04-10T08:12:29.245Z,10.50
2023-04-10T08:13:29.232Z,10.30
2023-04-10T08:14:29.227Z,10.40
2023-04-10T08:15:29.220Z,10.20
2023-04-10T08:16:29.243Z,10.90
2023-04-10T08:17:29.212Z,12.60
2023-04-10T08:18:30.135Z,13.60
2023-04-10T08:19:29.170Z,25.40
2023-04-10T08:20:29.327Z,18.70
2023-04-10T08:21:29.191Z,13.00
2023-04-10T08:22:29.156Z,12.90
2023-04-10T08:23:29.294Z,11.90
2023-04-10T08:24:29.139Z,11.80
2023-04-10T08:25:29.199Z,14.10
2023-04-10T08:26:29.198Z,12.00
2023-04-10T08:27:29.156Z,12.20
2023-04-10T08:28:29.121Z,13.30
2023-04-10T08:29:29.230Z,13.00
2023-04-10T08:30:29.231Z,12.90
2023-04-10T08:31:29.238Z,12.50
2023-04-10T08:32:29.560Z,11.20
2023-04-10T08:33:29.079Z,11.90
2023-04-10T08:34:29.156Z,12.50
2023-04-10T08:35:29.623Z,10.90
2023-04-10T08:36:29.727Z,11.20
2023-04-10T08:37:33.590Z,11.30
2023-04-10T08:38:30.064Z,12.00
2023-04-10T08:39:29.045Z,11.50
2023-04-10T08:40:29.025Z,11.10
2023-04-10T08:41:29.102Z,12.70
2023-04-10T08:42:29.020Z,12.00
2023-04-10T08:43:29.186Z,11.90
2023-04-10T08:44:29.054Z,11.90
2023-04-10T08:45:29.041Z,11.30
2023-04-10T08:46:29.036Z,13.20
2023-04-10T08:47:29.714Z,12.60
2023-04-10T08:48:29.057Z,11.80
2023-04-10T08:49:29.274Z,11.60
2023-04-10T08:50:29.691Z,12.00
2023-04-10T08:51:28.960Z,12.60
2023-04-10T08:52:28.943Z,11.40
2023-04-10T08:53:28.942Z,11.50
2023-04-10T08:54:28.939Z,11.50
2023-04-10T08:55:28.954Z,12.00
2023-04-10T08:56:28.891Z,11.30
2023-04-10T08:57:28.972Z,10.60
2023-04-10T08:58:29.014Z,11.50
2023-04-10T08:59:28.930Z,11.20
2023-04-10T09:00:29.892Z,11.70
2023-04-10T09:01:28.890Z,11.70
2023-04-10T09:02:29.096Z,11.80
2023-04-10T09:03:29.031Z,11.90
2023-04-10T09:04:28.958Z,11.30
2023-04-10T09:05:28.906Z,11.80
2023-04-10T09:06:28.993Z,12.30
2023-04-10T09:07:28.879Z,11.90
2023-04-10T09:08:28.838Z,12.10
2023-04-10T09:09:28.830Z,12.20
2023-04-10T09:10:28.855Z,12.20
2023-04-10T09:11:28.793Z,10.80
2023-04-10T09:12:28.815Z,10.90
2023-04-10T09:13:28.812Z,11.70
2023-04-10T09:14:28.871Z,13.10
2023-04-10T09:15:28.905Z,11.00
2023-04-10T09:16:28.860Z,11.90
2023-04-10T09:17:28.923Z,10.50
2023-04-10T09:18:29.867Z,9.80
2023-04-10T09:19:28.773Z,10.20
2023-04-10T09:20:28.758Z,10.70
2023-04-10T09:21:28.829Z,9.90
2023-04-10T09:22:28.810Z,9.80
2023-04-10T09:23:28.724Z,11.50
2023-04-10T09:24:28.733Z,10.40
2023-04-10T09:25:28.851Z,9.30
2023-04-10T09:26:28.745Z,9.60
2023-04-10T09:27:28.705Z,9.20
2023-04-10T09:28:28.690Z,9.60
2023-04-10T09:29:28.722Z,8.80
2023-04-10T09:30:28.688Z,9.00
2023-04-10T09:31:28.759Z,9.40
2023-04-10T09:32:28.674Z,9.40
2023-04-10T09:33:28.793Z,9.20
2023-04-10T09:34:28.621Z,9.10
2023-04-10T09:35:28.710Z,10.40
2023-04-10T09:36:28.635Z,8.80
2023-04-10T09:37:28.641Z,7.00
2023-04-10T09:38:29.516Z,8.50
2023-04-10T09:39:28.596Z,9.40
2023-04-10T09:40:28.635Z,8.00
2023-04-10T09:41:28.595Z,7.10
2023-04-10T09:42:28.613Z,7.50
2023-04-10T09:43:28.605Z,7.80
2023-04-10T09:44:28.558Z,6.50
2023-04-10T09:45:29.375Z,7.10
2023-04-10T09:46:28.702Z,6.60
2023-04-10T09:47:28.634Z,6.60
2023-04-10T09:48:28.561Z,7.30
2023-04-10T09:49:29.279Z,7.50
2023-04-10T09:51:01.176Z,7.30
2023-04-10T09:51:28.494Z,7.60
2023-04-10T09:52:28.502Z,7.60
2023-04-10T09:53:28.528Z,7.30
2023-04-10T09:54:28.561Z,7.70
2023-04-10T09:55:28.501Z,7.30
2023-04-10T09:56:28.505Z,7.30
2023-04-10T09:57:28.533Z,8.20
2023-04-10T09:58:28.499Z,7.70
2023-04-10T09:59:28.593Z,7.60
2023-04-10T10:00:28.529Z,7.30
2023-04-10T10:01:28.470Z,7.10
2023-04-10T10:02:28.541Z,7.00
2023-04-10T10:03:28.585Z,7.10
2023-04-10T10:04:28.423Z,8.90
2023-04-10T10:05:28.412Z,8.20
2023-04-10T10:06:28.448Z,7.30
2023-04-10T10:07:29.411Z,7.30
2023-04-10T10:08:28.366Z,6.10
2023-04-10T10:09:29.372Z,6.50
2023-04-10T10:10:29.365Z,6.50
2023-04-10T10:11:28.406Z,8.40
2023-04-10T10:12:29.087Z,7.40
2023-04-10T10:13:28.326Z,6.60
2023-04-10T10:14:28.353Z,6.50
2023-04-10T10:15:28.336Z,6.40
2023-04-10T10:16:28.412Z,6.30
2023-04-10T10:17:28.331Z,6.70
2023-04-10T10:18:28.337Z,7.80
2023-04-10T10:19:28.299Z,6.70
2023-04-10T10:20:28.300Z,7.40
2023-04-10T10:21:28.323Z,6.30
2023-04-10T10:22:28.268Z,5.90
2023-04-10T10:23:28.332Z,6.30
2023-04-10T10:24:28.288Z,5.40
2023-04-10T10:25:28.241Z,6.40
2023-04-10T10:26:28.312Z,5.30
2023-04-10T10:27:28.257Z,5.20
2023-04-10T10:28:28.222Z,5.00
2023-04-10T10:29:28.289Z,5.70
2023-04-10T10:30:30.541Z,4.90
2023-04-10T10:31:29.274Z,5.50
2023-04-10T10:32:28.352Z,6.40
2023-04-10T10:33:28.199Z,5.20
2023-04-10T10:34:28.204Z,5.20
2023-04-10T10:35:29.987Z,4.70
2023-04-10T10:36:29.198Z,5.70
2023-04-10T10:37:28.231Z,4.50
2023-04-10T10:38:28.181Z,4.70
2023-04-10T10:39:28.150Z,4.40
2023-04-10T10:40:28.173Z,4.50
2023-04-10T10:41:28.169Z,5.90
2023-04-10T10:42:28.134Z,4.00
2023-04-10T10:43:28.133Z,4.40
2023-04-10T10:44:28.132Z,4.30
2023-04-10T10:45:28.122Z,4.10
2023-04-10T10:46:28.083Z,4.70
2023-04-10T10:47:28.203Z,4.50
2023-04-10T10:48:28.144Z,3.80
2023-04-10T10:49:28.141Z,4.90
2023-04-10T10:50:28.096Z,4.90
2023-04-10T10:51:28.159Z,4.10
2023-04-10T10:52:28.110Z,4.40
2023-04-10T10:53:28.064Z,4.80
2023-04-10T10:54:28.036Z,4.20
2023-04-10T10:55:28.014Z,4.30
2023-04-10T10:56:28.026Z,4.40
2023-04-10T10:57:28.029Z,5.10
2023-04-10T10:58:28.031Z,4.80
2023-04-10T10:59:28.060Z,7.00
2023-04-10T11:00:28.105Z,5.70
2023-04-10T11:01:28.034Z,4.20
2023-04-10T11:02:28.146Z,5.10
2023-04-10T11:03:28.337Z,4.30
2023-04-10T11:04:27.968Z,4.30
2023-04-10T11:05:27.968Z,4.50
2023-04-10T11:06:27.938Z,5.50
2023-04-10T11:07:27.953Z,4.40
2023-04-10T11:08:27.997Z,5.60
2023-04-10T11:09:27.990Z,5.10
2023-04-10T11:10:27.937Z,4.50
2023-04-10T11:11:27.981Z,4.90
2023-04-10T11:12:27.932Z,4.40
2023-04-10T11:13:27.913Z,5.10
2023-04-10T11:14:27.933Z,5.10
2023-04-10T11:15:28.258Z,4.80
2023-04-10T11:16:28.909Z,5.90
2023-04-10T11:17:27.912Z,4.30
2023-04-10T11:18:27.914Z,4.70
2023-04-10T11:19:28.091Z,4.00
2023-04-10T11:20:27.900Z,5.50
2023-04-10T11:21:27.855Z,4.20
2023-04-10T11:22:27.862Z,4.00
2023-04-10T11:23:27.896Z,5.10
2023-04-10T11:24:27.917Z,5.10
2023-04-10T11:25:27.865Z,4.50
2023-04-10T11:26:27.864Z,3.90
2023-04-10T11:27:27.986Z,4.10
2023-04-10T11:28:27.785Z,3.50
2023-04-10T11:29:27.797Z,3.60
2023-04-10T11:30:27.798Z,5.00
2023-04-10T11:31:27.838Z,4.30
2023-04-10T11:32:27.808Z,5.40
2023-04-10T11:33:27.780Z,3.80
2023-04-10T11:34:27.802Z,5.20
2023-04-10T11:35:27.866Z,6.10
2023-04-10T11:36:27.731Z,4.10
2023-04-10T11:37:27.729Z,4.30
2023-04-10T11:38:27.783Z,4.90
2023-04-10T11:39:27.728Z,4.60
2023-04-10T11:40:28.824Z,4.20
2023-04-10T11:41:27.716Z,6.00
2023-04-10T11:42:27.735Z,4.50
2023-04-10T11:43:27.740Z,4.30
2023-04-10T11:44:27.682Z,5.50
2023-04-10T11:45:29.210Z,4.20
2023-04-10T11:46:31.009Z,3.90
2023-04-10T11:47:28.699Z,4.50
2023-04-10T11:48:27.694Z,4.70
2023-04-10T11:49:27.678Z,6.20
2023-04-10T11:50:27.621Z,4.40
2023-04-10T11:51:30.304Z,5.20
2023-04-10T11:52:28.777Z,3.90
2023-04-10T11:53:27.643Z,4.30
2023-04-10T11:54:27.649Z,5.60
2023-04-10T11:55:27.611Z,5.30
2023-04-10T11:56:28.335Z,4.70
2023-04-10T11:57:27.627Z,4.40
2023-04-10T11:58:28.344Z,4.70
2023-04-10T11:59:27.578Z,4.90
2023-04-10T12:00:27.586Z,4.60
2023-04-10T12:01:27.609Z,4.70
2023-04-10T12:02:27.650Z,4.80
2023-04-10T12:03:27.741Z,4.40
2023-04-10T12:04:27.837Z,4.70
2023-04-10T12:05:27.576Z,4.20
2023-04-10T12:06:27.525Z,4.40
2023-04-10T12:07:27.617Z,4.60
2023-04-10T12:08:27.546Z,4.80
2023-04-10T12:09:27.563Z,5.90
2023-04-10T12:10:27.558Z,4.60
2023-04-10T12:11:27.505Z,4.20
2023-04-10T12:12:27.609Z,4.40
2023-04-10T12:13:27.479Z,5.40
2023-04-10T12:14:27.498Z,5.80
2023-04-10T12:15:28.351Z,7.80
2023-04-10T12:16:27.573Z,4.60
2023-04-10T12:17:27.473Z,4.70
2023-04-10T12:18:27.520Z,4.60
2023-04-10T12:19:27.403Z,4.00
2023-04-10T12:20:27.431Z,5.20
2023-04-10T12:21:27.438Z,4.90
2023-04-10T12:22:59.333Z,5.10
2023-04-10T12:23:27.436Z,4.20
2023-04-10T12:24:27.416Z,4.00
2023-04-10T12:25:27.353Z,5.00
2023-04-10T12:26:27.397Z,4.60
2023-04-10T12:27:27.377Z,4.50
2023-04-10T12:28:27.341Z,3.80
2023-04-10T12:29:27.358Z,3.50
2023-04-10T12:30:27.387Z,4.30
2023-04-10T12:31:27.522Z,5.30
2023-04-10T12:32:27.762Z,4.60
2023-04-10T12:33:27.352Z,5.00
2023-04-10T12:34:28.330Z,6.10
2023-04-10T12:35:27.352Z,4.40
2023-04-10T12:36:27.309Z,4.70
2023-04-10T12:37:27.301Z,5.70
2023-04-10T12:38:27.845Z,4.90
2023-04-10T12:39:27.302Z,7.20
2023-04-10T12:40:27.298Z,5.00
2023-04-10T12:41:27.333Z,4.40
2023-04-10T12:42:27.262Z,3.50
2023-04-10T12:43:27.261Z,5.40
2023-04-10T12:44:27.269Z,5.50
2023-04-10T12:45:27.254Z,5.50
2023-04-10T12:46:27.314Z,4.00
2023-04-10T12:47:27.259Z,3.80
2023-04-10T12:48:27.898Z,5.30
2023-04-10T12:49:27.293Z,5.30
2023-04-10T12:50:27.307Z,4.00
2023-04-10T12:51:27.225Z,4.20
2023-04-10T12:52:27.855Z,4.30
2023-04-10T12:53:27.295Z,5.20
2023-04-10T12:54:27.853Z,4.10
2023-04-10T12:55:27.161Z,5.10
2023-04-10T12:56:27.851Z,4.10
2023-04-10T12:57:27.191Z,4.70
2023-04-10T12:58:27.162Z,9.30
2023-04-10T12:59:27.148Z,6.30
2023-04-10T13:00:27.124Z,5.00
2023-04-10T13:01:27.107Z,4.50
2023-04-10T13:02:27.295Z,5.60
2023-04-10T13:03:27.257Z,4.50
2023-04-10T13:04:27.278Z,4.90
2023-04-10T13:05:27.105Z,4.80
2023-04-10T13:06:27.920Z,4.80
2023-04-10T13:07:27.101Z,3.60
2023-04-10T13:08:27.140Z,4.30
2023-04-10T13:09:27.088Z,3.70
2023-04-10T13:10:27.104Z,4.00
2023-04-10T13:11:27.944Z,5.40
2023-04-10T13:12:27.039Z,3.30
2023-04-10T13:13:27.029Z,3.00
2023-04-10T13:14:27.064Z,2.80
2023-04-10T13:15:27.046Z,3.60
2023-04-10T13:16:27.108Z,3.30
2023-04-10T13:17:27.091Z,4.20
2023-04-10T13:18:27.689Z,7.20